• Join FlightAware (Why Join?)
  • Login
  • US Flag 
02:36PM EDT


 

Airport Tracker/Info


-or-


 

Live Flight TrackerFlight Track Log ✈ AWE1571 ✈ 28-Apr-2013 ✈ KCLT - KMSY

Flight Track Log - Related Links

Times and Time Zones

All times are in EDT time to prevent confusion due to time zone crossing. See the AWE1571 flight status page for this flight to view local times or setup timezone preferences in your user account.

Time Position Orientation Groundspeed Altitude Reporting Facility
EDT Latitude Longitude Course Direction KTS MPH feet Rate Location/Type
11:31AM 35.1956 -80.9533 251° West 152 175 1,500  Level Atlanta Center
11:32AM 35.1703 -80.9517 177° South 145 167 2,900 1,920 Climbing Atlanta Center
11:32AM 35.1369 -80.9556 185° South 209 241 3,900 1,860 Climbing Atlanta Center
11:33AM 35.1164 -80.9664 203° Southwest 228 262 4,800 2,220 Climbing Atlanta Center
11:33AM 35.0986 -81.0025 239° Southwest 258 297 6,200 1,980 Climbing Atlanta Center
11:34AM 35.2667 -81.2055 270° West  Level FlightAware Approximate
11:34AM 35.0944 -81.0892 267° West 269 310 8,000  Level Atlanta Center
11:35AM 35.1698 -81.2582 199° South  Level FlightAware Approximate
11:35AM 35.0903 -81.1756 267° West 269 310 10,600  Level Atlanta Center
11:36AM 35.0758 -81.3097 251° West  Level FlightAware Approximate
11:36AM 35.0861 -81.2722 267° West 283 326 12,400  Level Atlanta Center
11:37AM 35.0614 -81.3819 255° West 301 346 15,300 2,700 Climbing Atlanta Center
11:38AM 35.0281 -81.4819 248° West 313 360 17,900 2,220 Climbing Atlanta Center
11:39AM 34.9992 -81.5894 252° West 318 366 19,800 1,680 Climbing Atlanta Center
11:40AM 34.9656 -81.6917 248° West 324 373 21,300 1,500 Climbing Atlanta Center
11:41AM 34.9281 -81.8094 249° West 351 404 22,900 1,500 Climbing Atlanta Center
11:42AM 34.8717 -81.9172 237° Southwest 375 432 24,300 1,320 Climbing Atlanta Center
11:43AM 34.8169 -82.0147 236° Southwest 385 443 25,600 1,320 Climbing Atlanta Center
11:44AM 34.7539 -82.1225 235° Southwest 395 455 27,000 1,140 Climbing Atlanta Center
11:45AM 34.6869 -82.2378 235° Southwest 408 470 27,900 1,200 Climbing Atlanta Center
11:46AM 34.6236 -82.3500 236° Southwest 413 475 29,400 1,020 Climbing Atlanta Center
11:47AM 34.5503 -82.4778 235° Southwest 418 481 30,000 240 Climbing Atlanta Center
11:48AM 34.4992 -82.5694 236° Southwest 418 481 30,000  Level Atlanta Center
11:49AM 34.4233 -82.6914 233° Southwest 418 481 30,000  Level Atlanta Center
11:50AM 34.3619 -82.8083 238° Southwest 418 481 30,000  Level Atlanta Center
11:51AM 34.2964 -82.9200 235° Southwest 423 487 30,000  Level Atlanta Center
11:52AM 34.2283 -83.0339 234° Southwest 418 481 30,000  Level Atlanta Center
11:53AM 34.1542 -83.1578 234° Southwest 417 480 30,000  Level Atlanta Center
11:54AM 34.0925 -83.2686 236° Southwest 417 480 30,000  Level Atlanta Center
11:55AM 34.0242 -83.3822 234° Southwest 412 474 30,000  Level Atlanta Center
11:56AM 33.9558 -83.4953 234° Southwest 412 474 30,000  Level Atlanta Center
11:57AM 33.8917 -83.6058 235° Southwest 412 474 30,000  Level Atlanta Center
11:58AM 33.8272 -83.7161 235° Southwest 412 474 30,000 -60 Level Atlanta Center
11:59AM 33.7606 -83.8264 234° Southwest 407 468 29,900  Descending Atlanta Center
12:00PM 33.6939 -83.9389 235° Southwest 407 468 30,000  Climbing Atlanta Center
12:01PM 33.6336 -84.0364 233° Southwest 407 468 30,000  Level Atlanta Center
12:02PM 33.5667 -84.1461 234° Southwest 407 468 30,000  Level Atlanta Center
12:03PM 33.5019 -84.2556 235° Southwest 407 468 30,000  Level Atlanta Center
12:04PM 33.4347 -84.3675 234° Southwest 407 468 30,000  Level Atlanta Center
12:05PM 33.3614 -84.4889 234° Southwest 407 468 30,000  Level Atlanta Center
12:06PM 33.2942 -84.5981 234° Southwest 407 468 30,000  Level Atlanta Center
12:07PM 33.2289 -84.7094 235° Southwest 407 468 30,000  Level Atlanta Center
12:08PM 33.1614 -84.8206 234° Southwest 407 468 30,000  Level Atlanta Center
12:09PM 33.0939 -84.9289 233° Southwest 407 468 30,000  Level Atlanta Center
12:10PM 33.0264 -85.0372 233° Southwest 407 468 30,000  Level Atlanta Center
12:11PM 32.9628 -85.1481 236° Southwest 402 463 30,000  Level Atlanta Center
12:12PM 32.8950 -85.2461 231° Southwest 397 457 30,000  Level Atlanta Center
12:13PM 32.8311 -85.3564 235° Southwest 403 464 30,000  Level Atlanta Center
12:14PM 32.7611 -85.4617 232° Southwest 403 464 30,000  Level Atlanta Center
12:15PM 32.6953 -85.5717 235° Southwest 403 464 30,000  Level Atlanta Center
12:16PM 32.6292 -85.6789 234° Southwest 403 464 30,000  Level Atlanta Center
12:17PM 32.5589 -85.7836 231° Southwest 403 464 30,000  Level Atlanta Center
12:18PM 32.4925 -85.8858 232° Southwest 417 480 30,000  Level Atlanta Center
12:19PM 32.4261 -85.9953 234° Southwest 417 480 30,000  Level Atlanta Center
12:20PM 32.3619 -86.0994 234° Southwest 410 472 30,000  Level Atlanta Center
12:21PM 32.2994 -86.2036 235° Southwest 402 463 30,000  Level Atlanta Center
12:22PM 32.2286 -86.3175 234° Southwest 408 470 30,000  Level Atlanta Center
12:23PM 32.1536 -86.4283 231° Southwest 403 464 30,000  Level Atlanta Center
12:24PM 32.0803 -86.5342 231° Southwest 408 470 30,000  Level Atlanta Center
12:25PM 32.0072 -86.6375 230° Southwest 413 475 30,000  Level Atlanta Center
12:26PM 31.9303 -86.7283 225° Southwest 431 496 30,000  Level Atlanta Center
12:27PM 31.8550 -86.8336 230° Southwest 431 496 30,000  Level Atlanta Center
12:28PM 31.7772 -86.9386 229° Southwest 426 490 30,000  Level Atlanta Center
12:29PM 31.7039 -87.0389 229° Southwest 426 490 30,000  Level Atlanta Center
12:30PM 31.6261 -87.1508 231° Southwest 420 483 30,000  Level Atlanta Center
12:32PM 31.5075 -87.3053 228° Southwest 404 465 30,000  Level Houston Center
12:33PM 31.4353 -87.4047 230° Southwest 401 461 30,000  Level Houston Center
12:34PM 31.3622 -87.5039 229° Southwest 400 460 30,000  Level Houston Center
12:35PM 31.2875 -87.6044 229° Southwest 406 467 30,000  Level Houston Center
12:36PM 31.2117 -87.7075 229° Southwest 410 472 30,000  Level Houston Center
12:37PM 31.1225 -87.8289 229° Southwest 411 473 30,000  Level Houston Center
12:38PM 31.0464 -87.9289 228° Southwest 414 476 30,000  Level Houston Center
12:39PM 30.9703 -88.0294 229° Southwest 414 476 30,000  Level Houston Center
12:40PM 30.8972 -88.1286 229° Southwest 409 471 30,000 -60 Level Houston Center
12:41PM 30.8208 -88.2286 228° Southwest 413 475 29,900 -480 Descending Houston Center
12:42PM 30.7458 -88.3308 230° Southwest 414 476 29,100 -900 Descending Houston Center
12:43PM 30.6828 -88.4517 239° Southwest 415 478 28,100 -1,260 Descending Houston Center
12:44PM 30.6300 -88.5725 243° Southwest 418 481 26,600 -1,620 Descending Houston Center
12:45PM 30.5647 -88.7181 243° Southwest 424 488 24,800 -1,800 Descending Houston Center
12:46PM 30.5108 -88.8383 243° Southwest 422 486 23,000 -1,920 Descending Houston Center
12:48PM 30.4619 -88.9444 242° Southwest 376 433 20,900 -1,920 Descending Houston Center
12:49PM 30.4028 -89.0303 231° Southwest 367 422 19,100 -1,680 Descending Houston Center
12:50PM 30.3431 -89.1181 232° Southwest 351 404 17,500 -1,980 Descending Houston Center
12:51PM 30.2650 -89.2311 231° Southwest 328 377 14,800 -2,220 Descending Houston Center
12:52PM 30.2156 -89.2983 230° Southwest 327 376 13,000 -1,920 Descending Houston Center
12:53PM 30.1617 -89.3800 233° Southwest 322 371 11,100 -1,020 Descending Houston Center
12:54PM 30.1214 -89.4675 242° Southwest 312 359 10,900 -120 Descending Houston Center
12:55PM 30.0822 -89.5450 240° Southwest 289 333 10,900 -60 Level Houston Center
12:56PM 30.0436 -89.6236 240° Southwest 280 322 10,800 -780 Descending Houston Center
12:57PM 30.0056 -89.7022 241° Southwest 279 321 9,300 -1,680 Descending Houston Center
12:58PM 30.0375 -89.8028 290° West 282 325 7,400 -1,620 Descending Houston Center
12:59PM 30.0881 -89.8961 302° West 280 322 5,700 -1,260 Descending Houston Center
01:00PM 30.1194 -89.9511 303° West 273 314 4,800 -900 Descending Houston Center
01:00PM 30.1281 -89.9689 299° West 243 280 4,700 -780 Descending Houston Center
01:01PM 30.1550 -90.0133 305° West 250 288 4,000 -900 Descending Houston Center
01:02PM 30.1767 -90.0775 291° West 228 262 3,100 -780 Descending Houston Center
01:02PM 30.1761 -90.1039 269° West 204 235 3,000 -720 Descending Houston Center
01:03PM 30.1733 -90.1389 265° West 205 236 2,400 -660 Descending Houston Center
01:04PM 30.1581 -90.1914 251° West 189 217 1,900 -360 Descending Houston Center
01:04PM 30.1353 -90.2019 202° Southwest 173 199 2,000 360 Climbing Houston Center